sensor_id;sensor_type;location;lat;lon;timestamp;pressure;altitude;pressure_sealevel;temperature;humidity
11888;BME280;6003;42.756;23.130;2023-03-01T00:01:18;153489.81;;;4.20;100.00
11888;BME280;6003;42.756;23.130;2023-03-01T00:03:45;153497.72;;;4.23;100.00
11888;BME280;6003;42.756;23.130;2023-03-01T00:06:12;153509.56;;;4.27;100.00
11888;BME280;6003;42.756;23.130;2023-03-01T00:08:40;153508.25;;;4.27;100.00
11888;BME280;6003;42.756;23.130;2023-03-01T00:11:12;153500.38;;;4.24;100.00
11888;BME280;6003;42.756;23.130;2023-03-01T00:13:40;153495.09;;;4.22;100.00
11888;BME280;6003;42.756;23.130;2023-03-01T00:16:09;153493.78;;;4.21;100.00
11888;BME280;6003;42.756;23.130;2023-03-01T00:18:37;153484.59;;;4.18;100.00
11888;BME280;6003;42.756;23.130;2023-03-01T00:21:04;153487.22;;;4.19;100.00
11888;BME280;6003;42.756;23.130;2023-03-01T00:23:31;153488.53;;;4.19;100.00
11888;BME280;6003;42.756;23.130;2023-03-01T00:26:01;153503.00;;;4.25;100.00
11888;BME280;6003;42.756;23.130;2023-03-01T00:28:28;153495.09;;;4.22;100.00
11888;BME280;6003;42.756;23.130;2023-03-01T00:30:55;153493.78;;;4.21;100.00
11888;BME280;6003;42.756;23.130;2023-03-01T00:33:22;153509.56;;;4.27;100.00
11888;BME280;6003;42.756;23.130;2023-03-01T00:35:48;153500.38;;;4.24;100.00
11888;BME280;6003;42.756;23.130;2023-03-01T00:38:15;153492.50;;;4.21;100.00
11888;BME280;6003;42.756;23.130;2023-03-01T00:40:42;153487.22;;;4.19;100.00
11888;BME280;6003;42.756;23.130;2023-03-01T00:43:10;153487.22;;;4.19;100.00
11888;BME280;6003;42.756;23.130;2023-03-01T00:45:37;153489.81;;;4.20;100.00
11888;BME280;6003;42.756;23.130;2023-03-01T00:48:04;153489.81;;;4.20;100.00
11888;BME280;6003;42.756;23.130;2023-03-01T00:50:31;153481.94;;;4.17;100.00
11888;BME280;6003;42.756;23.130;2023-03-01T00:52:58;153489.81;;;4.20;100.00
11888;BME280;6003;42.756;23.130;2023-03-01T00:55:25;153506.97;;;4.26;100.00
11888;BME280;6003;42.756;23.130;2023-03-01T00:57:53;153503.00;;;4.25;100.00
11888;BME280;6003;42.756;23.130;2023-03-01T01:00:21;153512.19;;;4.28;100.00
11888;BME280;6003;42.756;23.130;2023-03-01T01:02:48;153518.75;;;4.31;100.00
11888;BME280;6003;42.756;23.130;2023-03-01T01:05:15;153516.16;;;4.30;100.00
11888;BME280;6003;42.756;23.130;2023-03-01T01:07:46;153529.31;;;4.35;100.00
11888;BME280;6003;42.756;23.130;2023-03-01T01:10:13;153534.53;;;4.37;100.00
11888;BME280;6003;42.756;23.130;2023-03-01T01:12:42;153528.00;;;4.35;100.00
11888;BME280;6003;42.756;23.130;2023-03-01T01:15:10;153529.31;;;4.35;100.00
11888;BME280;6003;42.756;23.130;2023-03-01T01:17:40;153541.13;;;4.40;100.00
11888;BME280;6003;42.756;23.130;2023-03-01T01:20:08;153524.03;;;4.33;100.00
11888;BME280;6003;42.756;23.130;2023-03-01T01:22:35;153516.16;;;4.30;100.00
11888;BME280;6003;42.756;23.130;2023-03-01T01:25:02;153514.84;;;4.29;100.00
11888;BME280;6003;42.756;23.130;2023-03-01T01:27:29;153517.47;;;4.30;100.00
11888;BME280;6003;42.756;23.130;2023-03-01T01:29:56;153522.72;;;4.33;100.00
11888;BME280;6003;42.756;23.130;2023-03-01T01:32:23;153528.00;;;4.35;100.00
11888;BME280;6003;42.756;23.130;2023-03-01T01:34:51;153533.22;;;4.37;100.00
11888;BME280;6003;42.756;23.130;2023-03-01T01:37:18;153531.91;;;4.36;100.00
11888;BME280;6003;42.756;23.130;2023-03-01T01:39:45;153520.13;;;4.32;100.00
11888;BME280;6003;42.756;23.130;2023-03-01T01:42:15;153531.91;;;4.36;100.00
11888;BME280;6003;42.756;23.130;2023-03-01T01:44:44;153516.16;;;4.30;100.00
11888;BME280;6003;42.756;23.130;2023-03-01T01:47:14;153500.38;;;4.24;100.00
11888;BME280;6003;42.756;23.130;2023-03-01T01:49:47;153505.66;;;4.26;100.00
11888;BME280;6003;42.756;23.130;2023-03-01T01:52:17;153493.78;;;4.21;100.00
11888;BME280;6003;42.756;23.130;2023-03-01T01:54:49;153503.00;;;4.25;100.00
11888;BME280;6003;42.756;23.130;2023-03-01T01:57:20;153495.09;;;4.22;100.00
11888;BME280;6003;42.756;23.130;2023-03-01T01:59:51;153466.16;;;4.11;100.00
11888;BME280;6003;42.756;23.130;2023-03-01T02:02:19;153484.59;;;4.18;100.00
11888;BME280;6003;42.756;23.130;2023-03-01T02:04:46;153459.59;;;4.08;100.00
11888;BME280;6003;42.756;23.130;2023-03-01T02:07:18;153458.28;;;4.07;100.00
11888;BME280;6003;42.756;23.130;2023-03-01T02:09:47;153460.94;;;4.09;100.00
11888;BME280;6003;42.756;23.130;2023-03-01T02:12:15;153458.28;;;4.07;100.00
11888;BME280;6003;42.756;23.130;2023-03-01T02:14:43;153437.25;;;3.99;100.00
11888;BME280;6003;42.756;23.130;2023-03-01T02:17:11;153445.13;;;4.02;100.00
11888;BME280;6003;42.756;23.130;2023-03-01T02:19:48;153446.47;;;4.03;100.00
11888;BME280;6003;42.756;23.130;2023-03-01T02:22:23;153434.63;;;3.98;100.00
11888;BME280;6003;42.756;23.130;2023-03-01T02:25:01;153426.75;;;3.95;100.00
11888;BME280;6003;42.756;23.130;2023-03-01T02:27:36;153426.75;;;3.95;100.00
11888;BME280;6003;42.756;23.130;2023-03-01T02:30:07;153426.75;;;3.95;100.00
11888;BME280;6003;42.756;23.130;2023-03-01T02:32:38;153422.78;;;3.94;100.00
11888;BME280;6003;42.756;23.130;2023-03-01T02:35:09;153401.78;;;3.86;100.00
11888;BME280;6003;42.756;23.130;2023-03-01T02:37:37;153400.44;;;3.85;100.00
11888;BME280;6003;42.756;23.130;2023-03-01T02:40:08;153408.31;;;3.88;100.00
11888;BME280;6003;42.756;23.130;2023-03-01T02:42:49;153399.13;;;3.84;100.00
11888;BME280;6003;42.756;23.130;2023-03-01T02:45:18;153372.88;;;3.74;100.00
11888;BME280;6003;42.756;23.130;2023-03-01T02:47:45;153384.66;;;3.79;100.00
11888;BME280;6003;42.756;23.130;2023-03-01T02:50:18;153387.31;;;3.80;100.00
11888;BME280;6003;42.756;23.130;2023-03-01T02:52:56;153395.22;;;3.83;100.00
11888;BME280;6003;42.756;23.130;2023-03-01T02:55:25;153395.22;;;3.83;100.00
11888;BME280;6003;42.756;23.130;2023-03-01T02:57:53;153393.84;;;3.82;100.00
11888;BME280;6003;42.756;23.130;2023-03-01T03:00:24;153379.38;;;3.77;100.00
11888;BME280;6003;42.756;23.130;2023-03-01T03:02:53;153378.09;;;3.76;100.00
11888;BME280;6003;42.756;23.130;2023-03-01T03:05:24;153384.66;;;3.79;100.00
11888;BME280;6003;42.756;23.130;2023-03-01T03:07:51;153371.50;;;3.74;100.00
11888;BME280;6003;42.756;23.130;2023-03-01T03:10:20;153376.78;;;3.76;100.00
11888;BME280;6003;42.756;23.130;2023-03-01T03:12:50;153387.31;;;3.80;100.00
11888;BME280;6003;42.756;23.130;2023-03-01T03:15:18;153385.97;;;3.79;100.00
11888;BME280;6003;42.756;23.130;2023-03-01T03:17:47;153387.31;;;3.80;100.00
11888;BME280;6003;42.756;23.130;2023-03-01T03:20:16;153387.31;;;3.80;100.00
11888;BME280;6003;42.756;23.130;2023-03-01T03:22:45;153380.75;;;3.77;100.00
11888;BME280;6003;42.756;23.130;2023-03-01T03:25:13;153372.88;;;3.74;100.00
11888;BME280;6003;42.756;23.130;2023-03-01T03:27:41;153379.38;;;3.77;100.00
11888;BME280;6003;42.756;23.130;2023-03-01T03:30:12;153374.16;;;3.75;100.00
11888;BME280;6003;42.756;23.130;2023-03-01T03:32:40;153361.00;;;3.70;100.00
11888;BME280;6003;42.756;23.130;2023-03-01T03:35:09;153378.09;;;3.76;100.00
11888;BME280;6003;42.756;23.130;2023-03-01T03:37:37;153368.91;;;3.73;100.00
11888;BME280;6003;42.756;23.130;2023-03-01T03:40:21;153351.81;;;3.66;100.00
11888;BME280;6003;42.756;23.130;2023-03-01T03:42:48;153334.69;;;3.59;100.00
11888;BME280;6003;42.756;23.130;2023-03-01T03:45:15;153342.63;;;3.63;100.00
11888;BME280;6003;42.756;23.130;2023-03-01T03:47:42;153355.75;;;3.68;100.00
11888;BME280;6003;42.756;23.130;2023-03-01T03:50:12;153351.81;;;3.66;100.00
11888;BME280;6003;42.756;23.130;2023-03-01T03:52:39;153346.56;;;3.64;100.00
11888;BME280;6003;42.756;23.130;2023-03-01T03:55:07;153353.13;;;3.67;100.00
11888;BME280;6003;42.756;23.130;2023-03-01T03:57:54;153353.13;;;3.67;100.00
11888;BME280;6003;42.756;23.130;2023-03-01T04:00:23;153350.53;;;3.66;100.00
11888;BME280;6003;42.756;23.130;2023-03-01T04:02:50;153355.75;;;3.68;100.00
11888;BME280;6003;42.756;23.130;2023-03-01T04:05:23;153339.97;;;3.61;100.00
11888;BME280;6003;42.756;23.130;2023-03-01T04:07:50;153351.81;;;3.66;100.00
11888;BME280;6003;42.756;23.130;2023-03-01T04:10:26;153346.56;;;3.64;100.00
11888;BME280;6003;42.756;23.130;2023-03-01T04:12:53;153349.16;;;3.65;100.00
11888;BME280;6003;42.756;23.130;2023-03-01T04:15:22;153334.69;;;3.59;100.00
11888;BME280;6003;42.756;23.130;2023-03-01T04:17:50;153338.69;;;3.61;100.00
11888;BME280;6003;42.756;23.130;2023-03-01T04:20:19;153330.78;;;3.58;100.00
11888;BME280;6003;42.756;23.130;2023-03-01T04:22:51;153312.38;;;3.51;100.00
11888;BME280;6003;42.756;23.130;2023-03-01T04:25:19;153304.47;;;3.48;100.00
11888;BME280;6003;42.756;23.130;2023-03-01T04:27:46;153312.38;;;3.51;100.00
11888;BME280;6003;42.756;23.130;2023-03-01T04:30:13;153311.06;;;3.50;100.00
11888;BME280;6003;42.756;23.130;2023-03-01T04:32:40;153320.25;;;3.54;100.00
11888;BME280;6003;42.756;23.130;2023-03-01T04:35:07;153329.47;;;3.57;100.00
11888;BME280;6003;42.756;23.130;2023-03-01T04:37:34;153313.72;;;3.51;100.00
11888;BME280;6003;42.756;23.130;2023-03-01T04:40:03;153304.47;;;3.48;100.00
11888;BME280;6003;42.756;23.130;2023-03-01T04:42:38;153321.59;;;3.54;100.00
11888;BME280;6003;42.756;23.130;2023-03-01T04:45:06;153315.03;;;3.52;100.00
11888;BME280;6003;42.756;23.130;2023-03-01T04:47:39;153295.31;;;3.44;100.00
11888;BME280;6003;42.756;23.130;2023-03-01T04:50:06;153282.16;;;3.39;100.00
11888;BME280;6003;42.756;23.130;2023-03-01T04:52:34;153278.22;;;3.37;100.00
11888;BME280;6003;42.756;23.130;2023-03-01T04:55:02;153282.16;;;3.39;100.00
11888;BME280;6003;42.756;23.130;2023-03-01T04:57:30;153284.81;;;3.40;100.00
11888;BME280;6003;42.756;23.130;2023-03-01T04:59:57;153287.41;;;3.41;100.00
11888;BME280;6003;42.756;23.130;2023-03-01T05:02:24;153267.69;;;3.33;100.00
11888;BME280;6003;42.756;23.130;2023-03-01T05:04:51;153259.81;;;3.30;100.00
11888;BME280;6003;42.756;23.130;2023-03-01T05:07:17;153261.13;;;3.31;100.00
11888;BME280;6003;42.756;23.130;2023-03-01T05:09:45;153255.91;;;3.29;100.00
11888;BME280;6003;42.756;23.130;2023-03-01T05:12:14;153250.63;;;3.27;100.00
11888;BME280;6003;42.756;23.130;2023-03-01T05:14:41;153246.72;;;3.25;100.00
11888;BME280;6003;42.756;23.130;2023-03-01T05:17:08;153246.72;;;3.25;100.00
11888;BME280;6003;42.756;23.130;2023-03-01T05:19:35;153245.34;;;3.25;100.00
11888;BME280;6003;42.756;23.130;2023-03-01T05:22:01;153253.25;;;3.28;100.00
11888;BME280;6003;42.756;23.130;2023-03-01T05:24:29;153242.75;;;3.24;100.00
11888;BME280;6003;42.756;23.130;2023-03-01T05:26:58;153248.03;;;3.26;100.00
11888;BME280;6003;42.756;23.130;2023-03-01T05:29:27;153240.13;;;3.23;100.00
11888;BME280;6003;42.756;23.130;2023-03-01T05:31:56;153221.72;;;3.15;100.00
11888;BME280;6003;42.756;23.130;2023-03-01T05:34:24;153230.91;;;3.19;100.00
11888;BME280;6003;42.756;23.130;2023-03-01T05:36:51;153224.38;;;3.16;100.00
11888;BME280;6003;42.756;23.130;2023-03-01T05:39:19;153229.59;;;3.19;100.00
11888;BME280;6003;42.756;23.130;2023-03-01T05:41:47;153225.69;;;3.17;100.00
11888;BME280;6003;42.756;23.130;2023-03-01T05:44:14;153226.97;;;3.17;100.00
11888;BME280;6003;42.756;23.130;2023-03-01T05:46:43;153228.28;;;3.18;100.00
11888;BME280;6003;42.756;23.130;2023-03-01T05:49:10;153237.47;;;3.22;100.00
11888;BME280;6003;42.756;23.130;2023-03-01T05:51:38;153224.38;;;3.16;100.00
11888;BME280;6003;42.756;23.130;2023-03-01T05:54:05;153228.28;;;3.18;100.00
11888;BME280;6003;42.756;23.130;2023-03-01T05:56:33;153232.25;;;3.20;100.00
11888;BME280;6003;42.756;23.130;2023-03-01T05:59:00;153242.75;;;3.24;100.00
11888;BME280;6003;42.756;23.130;2023-03-01T06:01:27;153244.06;;;3.24;100.00
11888;BME280;6003;42.756;23.130;2023-03-01T06:03:56;153240.13;;;3.23;100.00
11888;BME280;6003;42.756;23.130;2023-03-01T06:06:22;153259.81;;;3.30;100.00
11888;BME280;6003;42.756;23.130;2023-03-01T06:08:50;153261.13;;;3.31;100.00
11888;BME280;6003;42.756;23.130;2023-03-01T06:11:17;153267.69;;;3.33;100.00
11888;BME280;6003;42.756;23.130;2023-03-01T06:13:44;153269.03;;;3.34;100.00
11888;BME280;6003;42.756;23.130;2023-03-01T06:16:12;153272.97;;;3.35;100.00
11888;BME280;6003;42.756;23.130;2023-03-01T06:18:39;153270.34;;;3.34;100.00
11888;BME280;6003;42.756;23.130;2023-03-01T06:21:08;153266.38;;;3.33;100.00
11888;BME280;6003;42.756;23.130;2023-03-01T06:23:35;153269.03;;;3.34;100.00
11888;BME280;6003;42.756;23.130;2023-03-01T06:26:05;153269.03;;;3.34;100.00
11888;BME280;6003;42.756;23.130;2023-03-01T06:28:32;153284.81;;;3.40;100.00
11888;BME280;6003;42.756;23.130;2023-03-01T06:30:59;153287.41;;;3.41;100.00
11888;BME280;6003;42.756;23.130;2023-03-01T06:33:26;153300.56;;;3.46;100.00
11888;BME280;6003;42.756;23.130;2023-03-01T06:35:54;153311.06;;;3.50;100.00
11888;BME280;6003;42.756;23.130;2023-03-01T06:38:22;153334.69;;;3.59;100.00
11888;BME280;6003;42.756;23.130;2023-03-01T06:40:52;153311.06;;;3.50;100.00
11888;BME280;6003;42.756;23.130;2023-03-01T06:43:19;153300.56;;;3.46;100.00
11888;BME280;6003;42.756;23.130;2023-03-01T06:45:46;153329.47;;;3.57;100.00
11888;BME280;6003;42.756;23.130;2023-03-01T06:48:12;153334.69;;;3.59;100.00
11888;BME280;6003;42.756;23.130;2023-03-01T06:50:39;153351.81;;;3.66;100.00
11888;BME280;6003;42.756;23.130;2023-03-01T06:53:06;153342.63;;;3.63;100.00
11888;BME280;6003;42.756;23.130;2023-03-01T06:55:35;153353.13;;;3.67;100.00
11888;BME280;6003;42.756;23.130;2023-03-01T06:58:02;153374.16;;;3.75;100.00
11888;BME280;6003;42.756;23.130;2023-03-01T07:00:29;153376.78;;;3.76;100.00
11888;BME280;6003;42.756;23.130;2023-03-01T07:02:59;153384.66;;;3.79;100.00
11888;BME280;6003;42.756;23.130;2023-03-01T07:05:27;153378.09;;;3.76;100.00
11888;BME280;6003;42.756;23.130;2023-03-01T07:07:54;153400.44;;;3.85;100.00
11888;BME280;6003;42.756;23.130;2023-03-01T07:10:21;153397.81;;;3.84;100.00
11888;BME280;6003;42.756;23.130;2023-03-01T07:12:49;153397.81;;;3.84;100.00
11888;BME280;6003;42.756;23.130;2023-03-01T07:15:17;153399.13;;;3.84;100.00
11888;BME280;6003;42.756;23.130;2023-03-01T07:17:44;153405.69;;;3.87;100.00
11888;BME280;6003;42.756;23.130;2023-03-01T07:20:13;153405.69;;;3.87;100.00
11888;BME280;6003;42.756;23.130;2023-03-01T07:22:40;153421.47;;;3.93;100.00
11888;BME280;6003;42.756;23.130;2023-03-01T07:25:08;153439.91;;;4.00;100.00
11888;BME280;6003;42.756;23.130;2023-03-01T07:27:36;153447.78;;;4.03;100.00
11888;BME280;6003;42.756;23.130;2023-03-01T07:30:05;153478.03;;;4.15;100.00
11888;BME280;6003;42.756;23.130;2023-03-01T07:32:32;153489.81;;;4.20;100.00
11888;BME280;6003;42.756;23.130;2023-03-01T07:34:59;153468.84;;;4.12;100.00
11888;BME280;6003;42.756;23.130;2023-03-01T07:37:26;153483.28;;;4.17;100.00
11888;BME280;6003;42.756;23.130;2023-03-01T07:39:52;153499.06;;;4.23;100.00
11888;BME280;6003;42.756;23.130;2023-03-01T07:42:19;153504.28;;;4.25;100.00
11888;BME280;6003;42.756;23.130;2023-03-01T07:44:46;153518.75;;;4.31;100.00
11888;BME280;6003;42.756;23.130;2023-03-01T07:47:14;153516.16;;;4.30;100.00
11888;BME280;6003;42.756;23.130;2023-03-01T07:49:41;153508.25;;;4.27;100.00
11888;BME280;6003;42.756;23.130;2023-03-01T07:52:09;153526.66;;;4.34;100.00
11888;BME280;6003;42.756;23.130;2023-03-01T07:54:37;153547.69;;;4.42;100.00
11888;BME280;6003;42.756;23.130;2023-03-01T07:57:03;153560.88;;;4.47;100.00
11888;BME280;6003;42.756;23.130;2023-03-01T07:59:45;153555.59;;;4.45;100.00
11888;BME280;6003;42.756;23.130;2023-03-01T08:02:14;153602.97;;;4.64;100.00
11888;BME280;6003;42.756;23.130;2023-03-01T08:04:41;153588.50;;;4.58;100.00
11888;BME280;6003;42.756;23.130;2023-03-01T08:07:08;153618.75;;;4.70;100.00
11888;BME280;6003;42.756;23.130;2023-03-01T08:09:35;153634.53;;;4.76;100.00
11888;BME280;6003;42.756;23.130;2023-03-01T08:12:03;153645.03;;;4.80;100.00
11888;BME280;6003;42.756;23.130;2023-03-01T08:14:31;153662.16;;;4.87;100.00
11888;BME280;6003;42.756;23.130;2023-03-01T08:16:57;153666.09;;;4.88;100.00
11888;BME280;6003;42.756;23.130;2023-03-01T08:19:26;153695.03;;;5.00;100.00
11888;BME280;6003;42.756;23.130;2023-03-01T08:21:53;153681.88;;;4.94;100.00
11888;BME280;6003;42.756;23.130;2023-03-01T08:24:20;153634.53;;;4.76;100.00
11888;BME280;6003;42.756;23.130;2023-03-01T08:26:48;153672.66;;;4.91;100.00
11888;BME280;6003;42.756;23.130;2023-03-01T08:29:14;153692.44;;;4.98;100.00
11888;BME280;6003;42.756;23.130;2023-03-01T08:31:41;153692.44;;;4.98;100.00
11888;BME280;6003;42.756;23.130;2023-03-01T08:34:11;153717.41;;;5.08;100.00
11888;BME280;6003;42.756;23.130;2023-03-01T08:36:40;153750.34;;;5.21;100.00
11888;BME280;6003;42.756;23.130;2023-03-01T08:39:09;153724.00;;;5.11;100.00
11888;BME280;6003;42.756;23.130;2023-03-01T08:41:37;153731.88;;;5.14;100.00
11888;BME280;6003;42.756;23.130;2023-03-01T08:44:04;153735.84;;;5.15;100.00
11888;BME280;6003;42.756;23.130;2023-03-01T08:46:33;153801.66;;;5.41;100.00
11888;BME280;6003;42.756;23.130;2023-03-01T08:49:00;153831.94;;;5.53;100.00
11888;BME280;6003;42.756;23.130;2023-03-01T08:51:26;153837.16;;;5.55;100.00
11888;BME280;6003;42.756;23.130;2023-03-01T08:53:55;153816.09;;;5.47;100.00
11888;BME280;6003;42.756;23.130;2023-03-01T08:56:22;153726.59;;;5.12;100.00
11888;BME280;6003;42.756;23.130;2023-03-01T08:58:49;153780.59;;;5.33;100.00
11888;BME280;6003;42.756;23.130;2023-03-01T09:01:18;153750.34;;;5.21;100.00
11888;BME280;6003;42.756;23.130;2023-03-01T09:03:45;153781.91;;;5.33;100.00
11888;BME280;6003;42.756;23.130;2023-03-01T09:06:13;153821.38;;;5.49;100.00
11888;BME280;6003;42.756;23.130;2023-03-01T09:08:43;153787.19;;;5.35;100.00
11888;BME280;6003;42.756;23.130;2023-03-01T09:11:12;153781.91;;;5.33;100.00
11888;BME280;6003;42.756;23.130;2023-03-01T09:13:40;153800.31;;;5.40;100.00
11888;BME280;6003;42.756;23.130;2023-03-01T09:16:08;153806.91;;;5.43;100.00
11888;BME280;6003;42.756;23.130;2023-03-01T09:18:35;153826.66;;;5.51;100.00
11888;BME280;6003;42.756;23.130;2023-03-01T09:21:03;153808.19;;;5.43;100.00
11888;BME280;6003;42.756;23.130;2023-03-01T09:23:33;153825.34;;;5.50;100.00
11888;BME280;6003;42.756;23.130;2023-03-01T09:26:01;153897.78;;;5.78;100.00
11888;BME280;6003;42.756;23.130;2023-03-01T09:28:29;153939.91;;;5.95;100.00
11888;BME280;6003;42.756;23.130;2023-03-01T09:30:58;153895.09;;;5.77;100.00
11888;BME280;6003;42.756;23.130;2023-03-01T09:33:25;153924.06;;;5.88;100.00
11888;BME280;6003;42.756;23.130;2023-03-01T09:35:56;153958.38;;;6.02;100.00
11888;BME280;6003;42.756;23.130;2023-03-01T09:38:23;153918.78;;;5.86;100.00
11888;BME280;6003;42.756;23.130;2023-03-01T09:40:50;153936.00;;;5.93;100.00
11888;BME280;6003;42.756;23.130;2023-03-01T09:43:21;153934.59;;;5.93;100.00
11888;BME280;6003;42.756;23.130;2023-03-01T09:45:53;153892.50;;;5.76;100.00
11888;BME280;6003;42.756;23.130;2023-03-01T09:48:24;153937.31;;;5.94;100.00
11888;BME280;6003;42.756;23.130;2023-03-01T09:50:52;153955.72;;;6.01;100.00
11888;BME280;6003;42.756;23.130;2023-03-01T09:53:22;153979.47;;;6.10;100.00
11888;BME280;6003;42.756;23.130;2023-03-01T09:55:54;153958.38;;;6.02;100.00
11888;BME280;6003;42.756;23.130;2023-03-01T09:58:34;153979.47;;;6.10;100.00
11888;BME280;6003;42.756;23.130;2023-03-01T10:01:17;153997.88;;;6.17;100.00
11888;BME280;6003;42.756;23.130;2023-03-01T10:06:50;153959.69;;;6.02;99.55
11888;BME280;6003;42.756;23.130;2023-03-01T10:09:21;153976.78;;;6.09;99.84
11888;BME280;6003;42.756;23.130;2023-03-01T10:11:50;153945.19;;;5.97;99.80
11888;BME280;6003;42.756;23.130;2023-03-01T10:14:28;153987.38;;;6.13;100.00
11888;BME280;6003;42.756;23.130;2023-03-01T10:17:00;154013.69;;;6.23;100.00
11888;BME280;6003;42.756;23.130;2023-03-01T10:19:31;153913.56;;;5.84;100.00
11888;BME280;6003;42.756;23.130;2023-03-01T10:22:03;153945.19;;;5.97;100.00
11888;BME280;6003;42.756;23.130;2023-03-01T10:24:34;153966.28;;;6.05;100.00
11888;BME280;6003;42.756;23.130;2023-03-01T10:27:05;153968.91;;;6.06;100.00
11888;BME280;6003;42.756;23.130;2023-03-01T10:29:37;153993.91;;;6.16;100.00
11888;BME280;6003;42.756;23.130;2023-03-01T10:32:10;153947.81;;;5.98;100.00
11888;BME280;6003;42.756;23.130;2023-03-01T10:34:37;153967.59;;;6.05;100.00
11888;BME280;6003;42.756;23.130;2023-03-01T10:37:10;153988.66;;;6.14;100.00
11888;BME280;6003;42.756;23.130;2023-03-01T10:39:54;153961.00;;;6.03;100.00
11888;BME280;6003;42.756;23.130;2023-03-01T10:42:26;153971.50;;;6.07;100.00
11888;BME280;6003;42.756;23.130;2023-03-01T10:44:54;153982.06;;;6.11;99.46
11888;BME280;6003;42.756;23.130;2023-03-01T10:47:24;153979.47;;;6.10;98.78
11888;BME280;6003;42.756;23.130;2023-03-01T10:49:59;153983.38;;;6.12;99.13
11888;BME280;6003;42.756;23.130;2023-03-01T10:52:32;153934.59;;;5.93;98.99
11888;BME280;6003;42.756;23.130;2023-03-01T10:55:03;153974.19;;;6.08;99.91
11888;BME280;6003;42.756;23.130;2023-03-01T10:57:34;153984.69;;;6.12;99.65
11888;BME280;6003;42.756;23.130;2023-03-01T11:00:21;154003.16;;;6.19;98.96
11888;BME280;6003;42.756;23.130;2023-03-01T11:03:01;154026.84;;;6.28;98.51
11888;BME280;6003;42.756;23.130;2023-03-01T11:05:28;154037.38;;;6.32;99.09
11888;BME280;6003;42.756;23.130;2023-03-01T11:07:57;154051.88;;;6.38;97.73
11888;BME280;6003;42.756;23.130;2023-03-01T11:10:26;154100.63;;;6.57;98.24
11888;BME280;6003;42.756;23.130;2023-03-01T11:13:05;154075.63;;;6.47;96.99
11888;BME280;6003;42.756;23.130;2023-03-01T11:15:32;154046.63;;;6.36;97.57
11888;BME280;6003;42.756;23.130;2023-03-01T11:18:00;154043.97;;;6.35;98.05
11888;BME280;6003;42.756;23.130;2023-03-01T11:20:31;154003.16;;;6.19;97.14
11888;BME280;6003;42.756;23.130;2023-03-01T11:23:01;153987.38;;;6.13;97.78
11888;BME280;6003;42.756;23.130;2023-03-01T11:25:32;153989.97;;;6.14;98.25
11888;BME280;6003;42.756;23.130;2023-03-01T11:28:03;153995.25;;;6.16;98.33
11888;BME280;6003;42.756;23.130;2023-03-01T11:30:34;153992.59;;;6.15;98.19
11888;BME280;6003;42.756;23.130;2023-03-01T11:33:15;154003.16;;;6.19;98.37
11888;BME280;6003;42.756;23.130;2023-03-01T11:35:49;153972.88;;;6.07;99.00
11888;BME280;6003;42.756;23.130;2023-03-01T11:38:23;154001.84;;;6.19;98.88
11888;BME280;6003;42.756;23.130;2023-03-01T11:40:53;154053.19;;;6.39;99.07
11888;BME280;6003;42.756;23.130;2023-03-01T11:43:28;154025.56;;;6.28;98.60
11888;BME280;6003;42.756;23.130;2023-03-01T11:46:13;154043.97;;;6.35;99.51
11888;BME280;6003;42.756;23.130;2023-03-01T11:48:59;154072.94;;;6.46;98.56
11888;BME280;6003;42.756;23.130;2023-03-01T11:51:41;154126.97;;;6.67;99.11
11888;BME280;6003;42.756;23.130;2023-03-01T11:54:35;154140.16;;;6.72;98.80
11888;BME280;6003;42.756;23.130;2023-03-01T11:57:16;154141.47;;;6.73;97.19
11888;BME280;6003;42.756;23.130;2023-03-01T11:59:59;154142.81;;;6.73;97.08
11888;BME280;6003;42.756;23.130;2023-03-01T12:02:55;154120.41;;;6.65;97.62
11888;BME280;6003;42.756;23.130;2023-03-01T12:05:50;154123.03;;;6.66;97.97
11888;BME280;6003;42.756;23.130;2023-03-01T12:08:27;154155.94;;;6.78;98.87
11888;BME280;6003;42.756;23.130;2023-03-01T12:11:04;154100.63;;;6.57;99.28
11888;BME280;6003;42.756;23.130;2023-03-01T12:13:55;154103.25;;;6.58;98.90
11888;BME280;6003;42.756;23.130;2023-03-01T12:16:36;154095.34;;;6.55;98.82
11888;BME280;6003;42.756;23.130;2023-03-01T12:19:21;154076.94;;;6.48;99.67
11888;BME280;6003;42.756;23.130;2023-03-01T12:22:04;154074.25;;;6.47;100.00
11888;BME280;6003;42.756;23.130;2023-03-01T12:25:00;154116.44;;;6.63;100.00
11888;BME280;6003;42.756;23.130;2023-03-01T12:27:45;154120.41;;;6.65;98.66
11888;BME280;6003;42.756;23.130;2023-03-01T12:30:24;154182.34;;;6.89;98.25
11888;BME280;6003;42.756;23.130;2023-03-01T12:33:02;154174.44;;;6.86;97.83
11888;BME280;6003;42.756;23.130;2023-03-01T12:35:38;154248.22;;;7.14;97.21
11888;BME280;6003;42.756;23.130;2023-03-01T12:38:21;154356.31;;;7.56;96.78
11888;BME280;6003;42.756;23.130;2023-03-01T12:41:08;154382.72;;;7.66;94.02
11888;BME280;6003;42.756;23.130;2023-03-01T12:43:47;154353.69;;;7.55;93.21
11888;BME280;6003;42.756;23.130;2023-03-01T12:46:32;154318.09;;;7.41;93.23
11888;BME280;6003;42.756;23.130;2023-03-01T12:49:08;154289.06;;;7.30;94.23
11888;BME280;6003;42.756;23.130;2023-03-01T12:51:38;154341.81;;;7.51;95.33
11888;BME280;6003;42.756;23.130;2023-03-01T12:54:14;154377.41;;;7.64;94.27
11888;BME280;6003;42.756;23.130;2023-03-01T12:56:42;154372.19;;;7.62;94.22
11888;BME280;6003;42.756;23.130;2023-03-01T12:59:24;154358.97;;;7.57;93.33
11888;BME280;6003;42.756;23.130;2023-03-01T13:02:02;154340.50;;;7.50;94.24
11888;BME280;6003;42.756;23.130;2023-03-01T13:04:37;154332.59;;;7.47;94.78
11888;BME280;6003;42.756;23.130;2023-03-01T13:07:21;154269.34;;;7.22;94.60
11888;BME280;6003;42.756;23.130;2023-03-01T13:09:57;154250.84;;;7.15;95.37
11888;BME280;6003;42.756;23.130;2023-03-01T13:13:00;154261.44;;;7.19;94.54